Sankoumaru 31 — JD2200 — position and weather

sailwx.info

Track history (hours):
 
Tides and Currents Weather Stations Pressure Air Temp Water Temp Dewpoint Dewpoint Depression Visibility Wind Speed Wind Dir Waves Ship Positions

Sankoumaru 31

Last reported at 2014-Dec-09 06:33 UTC. Time now 2014-Dec-22 17:03 UTC.
Position N 35°16' E 139°46'.
Warning: this ship's position is 13 days out of date.

Length 75 m; draft 5 m.

Type: Cargo ship. MMSI: 431501842.

Date/timePositionNaut miles runAvg speedWind from/ knotsBaromVisibWave heightAir tempDewpointWater temp
2014-Dec-09 06:33N 35°16' E 139°46'9 9.4
2014-Dec-09 05:33N 35°25' E 139°45'  
2014-Dec-06 23:28N 35°22' E 139°54'1 0.0
2014-Dec-06 08:29N 35°22' E 139°53'0 0.0
2014-Dec-06 07:26N 35°22' E 139°53'0 0.0
2014-Dec-06 06:23N 35°22' E 139°53'0 0.0
2014-Dec-06 05:14N 35°22' E 139°53'0 0.0
2014-Dec-06 04:32N 35°22' E 139°53'3 1.4
2014-Dec-06 02:22N 35°23' E 139°50'910.5
2014-Dec-06 01:32N 35°27' E 139°41'0 0.0
2014-Dec-06 00:32N 35°27' E 139°41'0 0.0
2014-Dec-05 23:33N 35°27' E 139°41'0 0.2
2014-Dec-05 22:33N 35°27' E 139°41'1 1.2
2014-Dec-05 21:32N 35°27' E 139°42'0 0.0
2014-Dec-05 20:32N 35°27' E 139°42'0 0.0
2014-Dec-05 19:32N 35°27' E 139°42'0 0.0
2014-Dec-05 18:32N 35°27' E 139°42'0 0.0
2014-Dec-05 17:32N 35°27' E 139°42'0 0.1
2014-Dec-05 16:32N 35°27' E 139°42'0 0.0
2014-Dec-05 15:32N 35°27' E 139°42'0 0.0
2014-Dec-05 14:32N 35°27' E 139°42'0 0.0
2014-Dec-05 13:32N 35°27' E 139°42'0 0.1
2014-Dec-05 12:32N 35°27' E 139°42'0 0.1
2014-Dec-05 11:32N 35°27' E 139°42'0 0.0
2014-Dec-05 10:29N 35°27' E 139°42'0 0.0
2014-Dec-05 09:32N 35°27' E 139°42'0 0.0
2014-Dec-05 08:32N 35°27' E 139°42'0 0.0
2014-Dec-05 07:17N 35°27' E 139°42'7 7.9
2014-Dec-05 06:26N 35°30' E 139°49'10 0.8
2014-Dec-04 18:25N 35°37' E 139°58'1011.4
2014-Dec-04 17:33N 35°28' E 139°51'1111.3
2014-Dec-04 16:33N 35°19' E 139°44'1210.8
2014-Dec-04 15:24N 35°06' E 139°44'24110.1
2014-Dec-03 15:33N 34°03' E 135°02'1211.9
2014-Dec-03 14:34N 34°14' E 135°02'1211.9
2014-Dec-03 13:33N 34°26' E 135°03'1110.9
2014-Dec-03 12:30N 34°37' E 134°59'9 0.2
2014-Dec-01 23:07N 34°40' E 134°49'0 0.0
2014-Dec-01 14:16N 34°40' E 134°49'3 0.6
2014-Dec-01 10:07N 34°39' E 134°52'5 9.2
2014-Dec-01 09:32N 34°38' E 134°58'1111.1
2014-Dec-01 08:33N 34°36' E 135°12'1211.6
2014-Dec-01 07:33N 34°35' E 135°26'2 0.3
2014-Dec-01 02:26N 34°34' E 135°27'0 0.2
2014-Dec-01 01:33N 34°35' E 135°27'0 0.0
2014-Dec-01 00:17N 34°35' E 135°27'0 0.2
2014-Nov-30 23:33N 34°34' E 135°27'  
Track history (hours):
 
Tides and Currents Weather Stations Pressure Air Temp Water Temp Dewpoint Dewpoint Depression Visibility Wind Speed Wind Dir Waves Ship Positions

Sankoumaru 31

Last reported at 2014-Dec-09 06:33 UTC. Time now 2014-Dec-22 17:03 UTC.
Position N 35°16' E 139°46'.
Warning: this ship's position is 13 days out of date.

Length 75 m; draft 5 m.

Type: Cargo ship. MMSI: 431501842.

Date/timePositionNaut miles runAvg speedWind from/ knotsBaromVisibWave heightAir tempDewpointWater temp
2014-Dec-09 06:33N 35°16' E 139°46'9 9.4
2014-Dec-09 05:33N 35°25' E 139°45'  
2014-Dec-06 23:28N 35°22' E 139°54'1 0.0
2014-Dec-06 08:29N 35°22' E 139°53'0 0.0
2014-Dec-06 07:26N 35°22' E 139°53'0 0.0
2014-Dec-06 06:23N 35°22' E 139°53'0 0.0
2014-Dec-06 05:14N 35°22' E 139°53'0 0.0
2014-Dec-06 04:32N 35°22' E 139°53'3 1.4
2014-Dec-06 02:22N 35°23' E 139°50'910.5
2014-Dec-06 01:32N 35°27' E 139°41'0 0.0
2014-Dec-06 00:32N 35°27' E 139°41'0 0.0
2014-Dec-05 23:33N 35°27' E 139°41'0 0.2
2014-Dec-05 22:33N 35°27' E 139°41'1 1.2
2014-Dec-05 21:32N 35°27' E 139°42'0 0.0
2014-Dec-05 20:32N 35°27' E 139°42'0 0.0
2014-Dec-05 19:32N 35°27' E 139°42'0 0.0
2014-Dec-05 18:32N 35°27' E 139°42'0 0.0
2014-Dec-05 17:32N 35°27' E 139°42'0 0.1
2014-Dec-05 16:32N 35°27' E 139°42'0 0.0
2014-Dec-05 15:32N 35°27' E 139°42'0 0.0
2014-Dec-05 14:32N 35°27' E 139°42'0 0.0
2014-Dec-05 13:32N 35°27' E 139°42'0 0.1
2014-Dec-05 12:32N 35°27' E 139°42'0 0.1
2014-Dec-05 11:32N 35°27' E 139°42'0 0.0
2014-Dec-05 10:29N 35°27' E 139°42'0 0.0
2014-Dec-05 09:32N 35°27' E 139°42'0 0.0
2014-Dec-05 08:32N 35°27' E 139°42'0 0.0
2014-Dec-05 07:17N 35°27' E 139°42'7 7.9
2014-Dec-05 06:26N 35°30' E 139°49'10 0.8
2014-Dec-04 18:25N 35°37' E 139°58'1011.4
2014-Dec-04 17:33N 35°28' E 139°51'1111.3
2014-Dec-04 16:33N 35°19' E 139°44'1210.8
2014-Dec-04 15:24N 35°06' E 139°44'24110.1
2014-Dec-03 15:33N 34°03' E 135°02'1211.9
2014-Dec-03 14:34N 34°14' E 135°02'1211.9
2014-Dec-03 13:33N 34°26' E 135°03'1110.9
2014-Dec-03 12:30N 34°37' E 134°59'9 0.2
2014-Dec-01 23:07N 34°40' E 134°49'0 0.0
2014-Dec-01 14:16N 34°40' E 134°49'3 0.6
2014-Dec-01 10:07N 34°39' E 134°52'5 9.2
2014-Dec-01 09:32N 34°38' E 134°58'1111.1
2014-Dec-01 08:33N 34°36' E 135°12'1211.6
2014-Dec-01 07:33N 34°35' E 135°26'2 0.3
2014-Dec-01 02:26N 34°34' E 135°27'0 0.2
2014-Dec-01 01:33N 34°35' E 135°27'0 0.0
2014-Dec-01 00:17N 34°35' E 135°27'0 0.2
2014-Nov-30 23:33N 34°34' E 135°27'  

Dump ship's entire track history